createdAt,value
2018-06-17T00:00:01.609Z,21.20
2018-06-17T00:05:04.663Z,21.20
2018-06-17T00:10:07.728Z,21.20
2018-06-17T00:15:10.763Z,21.10
2018-06-17T00:20:13.831Z,21.10
2018-06-17T00:25:16.852Z,21.10
2018-06-17T00:30:19.888Z,21.10
2018-06-17T00:35:22.903Z,21.10
2018-06-17T00:40:26.061Z,21.00
2018-06-17T00:45:29.097Z,21.00
2018-06-17T00:50:32.343Z,21.00
2018-06-17T00:55:35.381Z,20.90
2018-06-17T01:00:38.432Z,20.90
2018-06-17T01:05:41.496Z,20.80
2018-06-17T01:10:44.512Z,20.70
2018-06-17T01:15:47.588Z,20.60
2018-06-17T01:20:50.649Z,20.50
2018-06-17T01:25:53.818Z,20.40
2018-06-17T01:30:56.852Z,20.30
2018-06-17T01:35:59.940Z,20.20
2018-06-17T01:41:03.013Z,20.10
2018-06-17T01:46:06.064Z,20.00
2018-06-17T01:51:09.176Z,19.90
2018-06-17T01:56:12.284Z,19.80
2018-06-17T02:01:15.318Z,19.70
2018-06-17T02:06:23.633Z,19.60
2018-06-17T02:11:32.225Z,19.50
2018-06-17T02:16:35.325Z,19.40
2018-06-17T02:21:38.701Z,19.30
2018-06-17T02:26:41.757Z,19.30
2018-06-17T02:31:44.846Z,19.20
2018-06-17T02:36:47.877Z,19.10
2018-06-17T02:41:50.939Z,19.00
2018-06-17T02:46:59.444Z,18.90
2018-06-17T02:52:08.548Z,18.90
2018-06-17T02:57:13.076Z,18.90
2018-06-17T03:02:16.397Z,18.80
2018-06-17T03:07:19.446Z,18.90
2018-06-17T03:12:22.485Z,18.90
2018-06-17T03:17:25.530Z,19.00
2018-06-17T03:22:28.590Z,19.00
2018-06-17T03:27:37.041Z,19.10
2018-06-17T03:32:45.525Z,19.20
2018-06-17T03:37:48.554Z,19.20
2018-06-17T03:42:51.605Z,19.30
2018-06-17T03:47:54.654Z,19.30
2018-06-17T03:52:57.672Z,19.40
2018-06-17T03:58:00.752Z,19.50
2018-06-17T04:03:03.778Z,19.60
2018-06-17T04:08:06.930Z,19.60
2018-06-17T04:13:10.177Z,19.60
2018-06-17T04:18:13.228Z,19.70
2018-06-17T04:23:16.276Z,19.80
2018-06-17T04:28:19.308Z,19.90
2018-06-17T04:33:22.327Z,20.00
2018-06-17T04:38:25.363Z,20.10
2018-06-17T04:43:28.392Z,20.20
2018-06-17T04:48:31.483Z,20.30
2018-06-17T04:53:34.512Z,20.50
2018-06-17T04:58:37.568Z,20.60
2018-06-17T05:03:40.624Z,20.80
2018-06-17T05:08:43.663Z,21.00
2018-06-17T05:13:46.744Z,21.30
2018-06-17T05:18:49.846Z,21.30
2018-06-17T05:23:52.880Z,21.50
2018-06-17T05:28:55.936Z,21.80
2018-06-17T05:33:59.203Z,22.30
2018-06-17T05:39:02.244Z,22.60
2018-06-17T05:44:05.925Z,22.70
2018-06-17T05:49:08.999Z,23.00
2018-06-17T05:54:12.045Z,23.00
2018-06-17T05:59:15.147Z,23.20
2018-06-17T06:04:18.216Z,23.20
2018-06-17T06:09:21.239Z,23.70
2018-06-17T06:14:24.326Z,24.70
2018-06-17T06:19:27.469Z,25.90
2018-06-17T06:24:30.519Z,26.60
2018-06-17T06:29:33.844Z,27.10
2018-06-17T06:34:37.048Z,27.50
2018-06-17T06:39:40.147Z,28.20
2018-06-17T06:44:43.167Z,28.70
2018-06-17T06:49:46.379Z,28.90
2018-06-17T06:54:49.441Z,29.40
2018-06-17T06:59:52.607Z,29.60
2018-06-17T07:05:07.306Z,29.50
2018-06-17T07:10:24.025Z,30.10
2018-06-17T07:15:39.320Z,29.80
2018-06-17T07:20:42.715Z,30.80
2018-06-17T07:26:56.168Z,30.90
2018-06-17T07:31:59.338Z,31.50
2018-06-17T07:37:02.422Z,31.00
2018-06-17T07:42:08.557Z,30.90
2018-06-17T07:47:11.658Z,31.10
2018-06-17T07:52:27.828Z,31.50
2018-06-17T07:57:32.138Z,31.30
2018-06-17T08:02:35.235Z,31.40
2018-06-17T08:07:38.247Z,31.50
2018-06-17T08:12:41.453Z,31.00
2018-06-17T08:17:44.476Z,31.40
2018-06-17T08:22:47.572Z,31.60
2018-06-17T08:27:50.601Z,31.40
2018-06-17T08:32:53.796Z,30.90
2018-06-17T08:37:56.891Z,31.30
2018-06-17T08:43:01.080Z,31.40
2018-06-17T08:48:04.150Z,31.50
2018-06-17T08:53:08.311Z,31.50
2018-06-17T08:58:11.508Z,30.90
2018-06-17T09:03:14.950Z,30.20
2018-06-17T09:08:18.048Z,29.80
2018-06-17T09:13:21.171Z,29.30
2018-06-17T09:18:24.775Z,28.90
2018-06-17T09:23:28.099Z,28.70
2018-06-17T09:28:31.171Z,28.80
2018-06-17T09:33:34.227Z,28.50
2018-06-17T09:38:37.334Z,28.30
2018-06-17T09:43:40.437Z,28.30
2018-06-17T09:48:43.794Z,28.30
2018-06-17T09:53:46.871Z,28.00
2018-06-17T09:58:49.932Z,27.90
2018-06-17T10:03:54.354Z,27.80
2018-06-17T10:08:57.411Z,27.70
2018-06-17T10:14:00.489Z,27.80
2018-06-17T10:19:03.555Z,28.00
2018-06-17T10:24:06.715Z,27.80
2018-06-17T10:29:09.927Z,27.60
2018-06-17T10:34:13.027Z,27.60
2018-06-17T10:39:16.148Z,27.50
2018-06-17T10:44:19.344Z,27.50
2018-06-17T10:49:22.379Z,27.50
2018-06-17T10:54:25.599Z,27.20
2018-06-17T10:59:28.748Z,27.20
2018-06-17T11:04:31.825Z,27.20
2018-06-17T11:09:34.941Z,27.10
2018-06-17T11:14:37.991Z,27.40
2018-06-17T11:19:41.128Z,27.50
2018-06-17T11:24:44.452Z,27.60
2018-06-17T11:29:47.533Z,27.80
2018-06-17T11:34:50.748Z,27.50
2018-06-17T11:39:53.818Z,27.50
2018-06-17T11:44:56.881Z,27.30
2018-06-17T11:50:00.180Z,27.30
2018-06-17T11:55:04.606Z,27.30
2018-06-17T12:00:08.042Z,27.80
2018-06-17T12:05:11.208Z,27.50
2018-06-17T12:10:14.279Z,27.30
2018-06-17T12:15:17.323Z,26.80
2018-06-17T12:20:20.451Z,26.50
2018-06-17T12:25:23.730Z,26.10
2018-06-17T12:30:26.909Z,25.90
2018-06-17T12:35:30.060Z,26.30
2018-06-17T12:40:33.118Z,26.60
2018-06-17T12:45:36.158Z,26.50
2018-06-17T12:50:39.264Z,26.10
2018-06-17T12:55:42.307Z,26.00
2018-06-17T13:00:45.343Z,26.40
2018-06-17T13:05:48.380Z,26.50
2018-06-17T13:10:51.426Z,26.90
2018-06-17T13:15:54.544Z,27.10
2018-06-17T13:20:57.577Z,26.80
2018-06-17T13:26:00.629Z,26.70
2018-06-17T13:31:03.704Z,26.70
2018-06-17T13:36:06.755Z,26.80
2018-06-17T13:41:09.759Z,26.70
2018-06-17T13:46:12.803Z,26.50
2018-06-17T13:51:15.838Z,26.60
2018-06-17T13:56:18.839Z,26.50
2018-06-17T14:01:21.880Z,26.50
2018-06-17T14:06:25.032Z,26.70
2018-06-17T14:11:28.162Z,26.70
2018-06-17T14:16:31.195Z,26.80
2018-06-17T14:21:34.253Z,26.70
2018-06-17T14:26:38.306Z,26.60
2018-06-17T14:31:42.696Z,26.60
2018-06-17T14:36:45.703Z,26.70
2018-06-17T14:41:54.295Z,26.80
2018-06-17T14:47:02.787Z,26.80
2018-06-17T14:52:07.494Z,27.00
2018-06-17T14:57:10.622Z,26.80
2018-06-17T15:02:13.669Z,26.60
2018-06-17T15:07:16.872Z,26.60
2018-06-17T15:12:19.911Z,26.70
2018-06-17T15:17:23.041Z,26.90
2018-06-17T15:22:26.106Z,26.90
2018-06-17T15:27:29.208Z,26.70
2018-06-17T15:32:37.523Z,26.40
2018-06-17T15:37:46.010Z,26.20
2018-06-17T15:42:49.046Z,26.30
2018-06-17T15:47:52.152Z,26.40
2018-06-17T15:52:55.208Z,26.30
2018-06-17T15:57:58.324Z,26.20
2018-06-17T16:03:01.848Z,26.20
2018-06-17T16:08:04.927Z,26.20
2018-06-17T16:13:13.415Z,25.90
2018-06-17T16:18:22.045Z,25.80
2018-06-17T16:23:25.047Z,25.60
2018-06-17T16:28:28.158Z,25.30
2018-06-17T16:33:31.190Z,25.00
2018-06-17T16:38:34.209Z,24.80
2018-06-17T16:43:37.267Z,24.70
2018-06-17T16:48:40.289Z,24.60
2018-06-17T16:53:48.835Z,24.40
2018-06-17T16:58:57.426Z,24.40
2018-06-17T17:04:00.473Z,24.30
2018-06-17T17:09:04.874Z,24.30
2018-06-17T17:14:08.019Z,24.40
2018-06-17T17:19:11.223Z,24.40
2018-06-17T17:24:14.250Z,24.40
2018-06-17T17:29:17.295Z,24.30
2018-06-17T17:34:25.847Z,24.30
2018-06-17T17:39:35.485Z,24.10
2018-06-17T17:44:44.001Z,24.10
2018-06-17T17:49:47.037Z,23.90
2018-06-17T17:54:50.208Z,23.90
2018-06-17T17:59:53.236Z,23.70
2018-06-17T18:04:56.250Z,23.70
2018-06-17T18:09:59.332Z,23.60
2018-06-17T18:15:02.383Z,23.50
2018-06-17T18:20:05.426Z,23.40
2018-06-17T18:25:13.937Z,23.40
2018-06-17T18:30:22.482Z,23.20
2018-06-17T18:35:30.988Z,23.20
2018-06-17T18:40:34.062Z,23.00
2018-06-17T18:45:37.271Z,22.90
2018-06-17T18:50:40.327Z,22.70
2018-06-17T18:55:43.400Z,22.60
2018-06-17T19:00:46.531Z,22.50
2018-06-17T19:05:50.754Z,22.40
2018-06-17T19:10:59.508Z,22.30
2018-06-17T19:16:09.212Z,22.20
2018-06-17T19:21:12.270Z,22.10
2018-06-17T19:26:15.307Z,22.00
2018-06-17T19:31:18.421Z,21.90
2018-06-17T19:36:21.539Z,21.80
2018-06-17T19:41:24.557Z,21.80
2018-06-17T19:46:27.719Z,21.70
2018-06-17T19:51:36.336Z,21.60
2018-06-17T19:56:44.963Z,21.60
2018-06-17T20:01:48.004Z,21.50
2018-06-17T20:06:51.032Z,21.30
2018-06-17T20:11:54.080Z,21.10
2018-06-17T20:16:57.152Z,21.10
2018-06-17T20:22:00.276Z,21.00
2018-06-17T20:27:03.580Z,20.90
2018-06-17T20:32:12.148Z,20.90
2018-06-17T20:37:20.824Z,20.90
2018-06-17T20:42:29.473Z,20.90
2018-06-17T20:47:32.513Z,20.80
2018-06-17T20:52:35.570Z,20.70
2018-06-17T20:57:39.635Z,20.60
2018-06-17T21:02:42.692Z,20.50
2018-06-17T21:07:45.736Z,20.40
2018-06-17T21:12:48.824Z,20.20
2018-06-17T21:17:52.150Z,20.00
2018-06-17T21:23:00.779Z,19.80
2018-06-17T21:28:03.851Z,19.60
2018-06-17T21:33:06.887Z,19.50
2018-06-17T21:38:09.941Z,19.30
2018-06-17T21:43:13.065Z,19.20
2018-06-17T21:48:16.100Z,19.00
2018-06-17T21:53:19.203Z,18.90
2018-06-17T21:58:27.627Z,18.70
2018-06-17T22:03:30.721Z,18.60
2018-06-17T22:08:39.260Z,18.40
2018-06-17T22:13:47.763Z,18.20
2018-06-17T22:18:51.887Z,18.10
2018-06-17T22:23:54.961Z,18.00
2018-06-17T22:28:58.003Z,17.90
2018-06-17T22:34:01.095Z,17.80
2018-06-17T22:39:06.162Z,17.70
2018-06-17T22:44:09.323Z,17.70
2018-06-17T22:49:12.365Z,17.70
2018-06-17T22:54:26.941Z,17.60
2018-06-17T22:59:35.365Z,17.60
2018-06-17T23:04:44.171Z,17.50
2018-06-17T23:09:48.717Z,17.40
2018-06-17T23:14:51.772Z,17.30
2018-06-17T23:19:54.818Z,17.30
2018-06-17T23:24:57.932Z,17.40
2018-06-17T23:30:00.968Z,17.30
2018-06-17T23:35:04.045Z,17.30
2018-06-17T23:40:07.158Z,17.20
2018-06-17T23:45:10.237Z,17.20
2018-06-17T23:50:18.795Z,17.10
2018-06-17T23:55:27.287Z,17.00
